createdAt,value
2019-01-29T00:01:50.800Z,13.38
2019-01-29T00:05:55.432Z,11.05
2019-01-29T00:09:59.970Z,11.33
2019-01-29T00:14:04.803Z,12.85
2019-01-29T00:18:09.335Z,10.45
2019-01-29T00:22:13.855Z,11.78
2019-01-29T00:26:18.362Z,12.75
2019-01-29T00:30:24.567Z,13.78
2019-01-29T00:34:29.370Z,10.50
2019-01-29T00:38:33.889Z,11.38
2019-01-29T00:42:38.459Z,11.53
2019-01-29T00:46:42.983Z,12.55
2019-01-29T00:50:47.515Z,13.45
2019-01-29T00:54:52.036Z,12.70
2019-01-29T00:58:56.562Z,10.72
2019-01-29T01:03:01.097Z,12.63
2019-01-29T01:07:05.725Z,12.65
2019-01-29T01:11:10.906Z,11.43
2019-01-29T01:15:15.750Z,11.48
2019-01-29T01:19:20.323Z,12.13
2019-01-29T01:23:24.827Z,13.55
2019-01-29T01:27:29.343Z,15.00
2019-01-29T01:31:33.873Z,8.88
2019-01-29T01:35:38.395Z,12.37
2019-01-29T01:39:42.959Z,11.85
2019-01-29T01:43:47.528Z,13.25
2019-01-29T01:47:52.073Z,11.30
2019-01-29T01:51:56.626Z,12.68
2019-01-29T01:56:01.166Z,10.37
2019-01-29T02:00:06.779Z,13.53
2019-01-29T02:04:11.308Z,18.25
2019-01-29T02:08:15.833Z,10.10
2019-01-29T02:12:20.350Z,13.73
2019-01-29T02:16:24.891Z,15.80
2019-01-29T02:20:29.411Z,10.60
2019-01-29T02:24:33.888Z,10.82
2019-01-29T02:28:38.422Z,11.83
2019-01-29T02:32:42.949Z,15.83
2019-01-29T02:55:24.991Z,11.83
2019-01-29T03:07:34.983Z,11.30
2019-01-29T03:11:39.526Z,13.15
2019-01-29T03:18:29.429Z,11.20
2019-01-29T03:22:33.947Z,7.57
2019-01-29T03:42:38.160Z,11.85
2019-01-29T04:16:32.130Z,10.98
2019-01-29T04:20:36.631Z,9.35
2019-01-29T04:24:41.175Z,9.18
2019-01-29T04:28:55.971Z,5.92
2019-01-29T05:02:23.106Z,8.80
2019-01-29T05:06:27.583Z,10.40
2019-01-29T05:10:32.119Z,10.25
2019-01-29T05:14:36.664Z,10.68
2019-01-29T05:18:41.198Z,12.23
2019-01-29T05:22:45.834Z,7.80
2019-01-29T05:26:50.321Z,11.13
2019-01-29T05:30:54.876Z,15.05
2019-01-29T05:34:59.410Z,11.18
2019-01-29T05:39:06.351Z,11.90
2019-01-29T05:43:10.839Z,12.35
2019-01-29T05:54:17.579Z,11.45
2019-01-29T06:09:59.823Z,11.17
2019-01-29T07:05:37.840Z,11.95
2019-01-29T07:15:40.425Z,10.58
2019-01-29T08:55:47.827Z,15.08
2019-01-29T10:02:34.583Z,17.20
2019-01-29T10:10:32.712Z,15.07
2019-01-29T10:14:37.223Z,20.25
2019-01-29T10:18:41.751Z,18.17
2019-01-29T10:22:46.287Z,14.27
2019-01-29T10:26:50.819Z,18.25
2019-01-29T10:30:55.715Z,16.17
2019-01-29T10:36:15.339Z,18.30
2019-01-29T10:40:21.508Z,16.20
2019-01-29T10:46:54.102Z,15.90
2019-01-29T10:50:58.809Z,18.67
2019-01-29T11:02:09.388Z,16.85
2019-01-29T11:11:08.096Z,15.03
2019-01-29T11:15:16.242Z,11.90
2019-01-29T11:26:11.919Z,16.00
2019-01-29T11:55:20.450Z,16.80
2019-01-29T12:02:54.154Z,17.35
2019-01-29T12:10:44.224Z,20.77
2019-01-29T12:14:56.004Z,19.07
2019-01-29T12:18:59.638Z,20.10
2019-01-29T12:23:04.513Z,19.50
2019-01-29T12:27:09.093Z,19.05
2019-01-29T12:34:16.614Z,22.35
2019-01-29T12:38:21.105Z,21.17
2019-01-29T12:42:25.672Z,23.32
2019-01-29T12:46:30.214Z,25.72
2019-01-29T12:50:34.935Z,23.30
2019-01-29T12:54:39.474Z,23.03
2019-01-29T12:58:43.971Z,21.77
2019-01-29T13:02:48.518Z,21.90
2019-01-29T13:06:53.040Z,22.73
2019-01-29T13:10:57.570Z,23.42
2019-01-29T13:15:02.101Z,25.48
2019-01-29T13:19:06.607Z,31.37
2019-01-29T13:23:11.124Z,24.25
2019-01-29T13:27:15.673Z,23.25
2019-01-29T13:31:20.215Z,23.38
2019-01-29T13:35:26.755Z,24.00
2019-01-29T13:39:31.260Z,22.70
2019-01-29T13:43:35.827Z,26.27
2019-01-29T13:47:40.360Z,27.17
2019-01-29T13:51:44.895Z,26.62
2019-01-29T13:55:49.423Z,24.12
2019-01-29T13:59:53.919Z,21.20
2019-01-29T14:04:05.965Z,23.12
2019-01-29T14:08:04.876Z,21.37
2019-01-29T14:12:09.629Z,38.40
2019-01-29T14:16:15.003Z,24.00
2019-01-29T14:20:19.550Z,22.97
2019-01-29T14:24:24.080Z,24.57
2019-01-29T14:28:28.599Z,34.67
2019-01-29T14:32:33.142Z,28.12
2019-01-29T14:36:37.663Z,25.90
2019-01-29T14:40:42.151Z,24.37
2019-01-29T14:44:50.667Z,23.38
2019-01-29T14:48:55.211Z,22.27
2019-01-29T14:52:59.745Z,21.63
2019-01-29T14:57:04.371Z,22.52
2019-01-29T15:01:09.079Z,32.98
2019-01-29T15:05:13.691Z,37.35
2019-01-29T15:09:18.211Z,43.17
2019-01-29T15:13:22.849Z,27.13
2019-01-29T15:17:33.331Z,45.55
2019-01-29T15:21:38.272Z,30.23
2019-01-29T15:26:51.287Z,25.92
2019-01-29T15:30:55.826Z,30.47
2019-01-29T15:39:39.745Z,23.77
2019-01-29T15:43:44.303Z,25.20
2019-01-29T15:47:48.857Z,20.97
2019-01-29T16:05:56.822Z,27.10
2019-01-29T16:11:22.138Z,27.87
2019-01-29T16:17:31.658Z,24.85
2019-01-29T16:21:36.204Z,22.90
2019-01-29T16:25:41.239Z,23.05
2019-01-29T16:29:45.784Z,24.92
2019-01-29T16:33:51.409Z,25.97
2019-01-29T16:37:55.891Z,25.48
2019-01-29T16:48:56.067Z,21.40
2019-01-29T17:02:58.239Z,26.57
2019-01-29T17:08:13.242Z,27.15
2019-01-29T17:12:20.805Z,22.20
2019-01-29T17:16:25.338Z,20.88
2019-01-29T17:20:32.259Z,21.57
2019-01-29T17:32:37.706Z,18.32
2019-01-29T18:17:10.563Z,18.30
2019-01-29T18:30:13.379Z,20.43
2019-01-29T18:34:17.915Z,17.12
2019-01-29T18:38:22.467Z,17.37
2019-01-29T18:42:27.033Z,16.23
2019-01-29T18:46:31.524Z,17.47
2019-01-29T18:50:36.044Z,17.37
2019-01-29T19:24:11.951Z,14.65
2019-01-29T20:00:46.697Z,12.85
2019-01-29T20:04:53.657Z,12.15
2019-01-29T20:12:34.278Z,13.17
2019-01-29T21:21:12.203Z,15.23
2019-01-29T21:52:59.319Z,15.08
2019-01-29T21:57:03.814Z,13.90
2019-01-29T22:01:08.355Z,13.60
2019-01-29T22:05:12.927Z,16.47
2019-01-29T22:09:17.451Z,14.58
2019-01-29T22:13:22.082Z,15.55
2019-01-29T22:17:26.614Z,17.10
2019-01-29T22:21:31.140Z,14.28
2019-01-29T22:25:35.926Z,13.73
2019-01-29T22:29:40.603Z,13.45
2019-01-29T22:33:45.118Z,14.93
2019-01-29T22:37:49.652Z,14.60
2019-01-29T22:41:54.200Z,14.35
2019-01-29T22:45:58.847Z,15.28
2019-01-29T22:50:03.339Z,15.60
2019-01-29T22:54:07.871Z,17.87
2019-01-29T22:58:12.402Z,16.13
2019-01-29T23:02:16.923Z,15.80
2019-01-29T23:06:31.527Z,15.53
2019-01-29T23:10:36.043Z,17.23
2019-01-29T23:14:40.572Z,15.63
2019-01-29T23:18:45.090Z,15.38
2019-01-29T23:22:49.632Z,16.23
2019-01-29T23:26:54.180Z,17.07
2019-01-29T23:30:58.712Z,16.57
2019-01-29T23:35:03.286Z,19.23
2019-01-29T23:39:09.519Z,16.42
2019-01-29T23:43:14.087Z,16.85
2019-01-29T23:47:18.578Z,16.93
2019-01-29T23:51:23.112Z,16.77
2019-01-29T23:55:27.663Z,14.43
2019-01-29T23:59:32.202Z,16.83
